Time;durP1;ratioP1;P1;durP2;ratioP2;P2;SDS_P1;SDS_P2;PMS_P1;PMS_P2;Temp;Humidity;BMP_temperature;BMP_pressure;BME280_temperature;BME280_humidity;BME280_pressure;Samples;Min_cycle;Max_cycle;Signal;HPM_P1;HPM_P2
2023/06/27 00:02:12;;;;;;;8.88;1.92;;;24.60;51.60;;;;;;4018784;29;20060;-46
2023/06/27 00:04:56;;;;;;;2.33;1.60;;;24.60;51.60;;;;;;4017389;29;20076;-44
2023/06/27 00:07:38;;;;;;;4.40;1.73;;;24.60;51.60;;;;;;4017754;29;20060;-45
2023/06/27 00:10:19;;;;;;;4.72;1.67;;;24.60;51.70;;;;;;4018198;29;20129;-43
2023/06/27 00:13:01;;;;;;;6.28;1.83;;;24.60;51.70;;;;;;4018282;29;20057;-42
2023/06/27 00:15:42;;;;;;;3.00;1.90;;;24.60;51.70;;;;;;4017853;29;20061;-44
2023/06/27 00:18:23;;;;;;;3.58;1.70;;;24.60;51.90;;;;;;4018533;29;20520;-44
2023/06/27 00:21:05;;;;;;;;;;;24.60;52.00;;;;;;4018765;29;20080;-43
2023/06/27 00:23:47;;;;;;;4.38;2.00;;;24.60;52.10;;;;;;4017919;29;19931;-42
2023/06/27 00:26:29;;;;;;;5.25;1.70;;;24.60;52.40;;;;;;4013509;29;20060;-41
2023/06/27 00:29:11;;;;;;;4.13;2.00;;;24.50;52.20;;;;;;4018078;29;20048;-43
2023/06/27 00:31:52;;;;;;;3.72;1.90;;;24.50;52.10;;;;;;4016454;29;20065;-41
2023/06/27 00:34:33;;;;;;;2.85;1.80;;;24.50;52.20;;;;;;4017853;29;20053;-43
2023/06/27 00:37:14;;;;;;;3.40;1.80;;;24.50;52.30;;;;;;4011516;29;20079;-44
2023/06/27 00:39:55;;;;;;;3.75;2.10;;;24.50;52.20;;;;;;4016801;29;20418;-45
2023/06/27 00:42:37;;;;;;;;;;;24.50;52.20;;;;;;4014577;29;20060;-47
2023/06/27 00:45:20;;;;;;;;;;;24.50;52.40;;;;;;4018407;29;20344;-43
2023/06/27 00:48:01;;;;;;;2.65;1.70;;;24.50;52.80;;;;;;4018062;29;19934;-45
2023/06/27 00:50:45;;;;;;;3.30;1.92;;;24.40;53.50;;;;;;4015271;29;20059;-41
2023/06/27 00:53:27;;;;;;;3.42;2.28;;;24.40;52.60;;;;;;4016996;29;20077;-42
2023/06/27 00:56:08;;;;;;;6.22;2.65;;;24.40;52.50;;;;;;4017164;29;20068;-42
2023/06/27 00:58:49;;;;;;;6.22;2.33;;;24.40;52.60;;;;;;4004577;29;20053;-43
2023/06/27 01:01:32;;;;;;;4.50;2.15;;;24.40;52.60;;;;;;4013093;29;20075;-42
2023/06/27 01:04:14;;;;;;;2.10;1.88;;;24.40;52.60;;;;;;4017225;29;20129;-43
2023/06/27 01:07:01;;;;;;;5.07;1.73;;;24.40;52.60;;;;;;4016411;29;20060;-42
2023/06/27 01:09:49;;;;;;;3.53;1.95;;;24.30;52.50;;;;;;4016074;29;20060;-43
2023/06/27 01:12:39;;;;;;;2.88;1.90;;;24.40;52.60;;;;;;4016363;29;20060;-42
2023/06/27 01:15:20;;;;;;;5.03;2.00;;;24.30;52.60;;;;;;4001843;29;20077;-43
2023/06/27 01:18:04;;;;;;;2.42;2.20;;;24.30;52.70;;;;;;4002017;29;20417;-42
2023/06/27 01:20:46;;;;;;;4.60;1.73;;;24.30;52.60;;;;;;4023933;29;20193;-43
2023/06/27 01:23:31;;;;;;;3.60;2.35;;;24.30;52.80;;;;;;4012221;29;20084;-45
2023/06/27 01:26:15;;;;;;;5.15;2.75;;;24.30;52.80;;;;;;3996031;29;20061;-43
2023/06/27 01:28:56;;;;;;;4.38;2.05;;;24.30;52.80;;;;;;4001944;29;20068;-44
2023/06/27 01:31:40;;;;;;;;;;;24.30;52.80;;;;;;3999837;29;20064;-44
2023/06/27 01:34:33;;;;;;;4.70;2.10;;;24.30;53.00;;;;;;4016638;29;19935;-44
2023/06/27 01:37:22;;;;;;;4.05;2.28;;;24.30;53.20;;;;;;4010709;29;20056;-44
2023/06/27 01:40:07;;;;;;;2.40;2.20;;;24.20;53.00;;;;;;4001753;29;20402;-42
2023/06/27 01:42:54;;;;;;;2.88;1.75;;;24.20;53.00;;;;;;4004619;29;20641;-46
2023/06/27 01:45:37;;;;;;;3.53;2.30;;;24.20;53.00;;;;;;4017251;29;20096;-42
2023/06/27 01:48:20;;;;;;;5.30;2.47;;;24.20;53.10;;;;;;4016982;29;20064;-41
2023/06/27 01:51:08;;;;;;;3.40;2.35;;;24.20;53.00;;;;;;4009367;29;20190;-43
2023/06/27 01:53:50;;;;;;;2.78;1.90;;;24.20;53.00;;;;;;4022363;29;20061;-42
2023/06/27 01:56:31;;;;;;;;;;;24.20;53.10;;;;;;4010120;29;20133;-43
2023/06/27 01:59:13;;;;;;;4.57;2.10;;;24.20;53.20;;;;;;4010224;29;19982;-42
2023/06/27 02:01:54;;;;;;;3.17;2.17;;;24.10;53.40;;;;;;4015800;29;20060;-45
2023/06/27 02:04:36;;;;;;;3.28;2.13;;;24.10;53.20;;;;;;4001750;29;20060;-43
2023/06/27 02:07:17;;;;;;;2.65;1.65;;;24.10;53.20;;;;;;4001698;29;20186;-43
2023/06/27 02:09:58;;;;;;;4.57;2.05;;;24.10;53.10;;;;;;4001875;29;20064;-43
2023/06/27 02:12:38;;;;;;;2.80;2.55;;;24.10;53.90;;;;;;4004683;29;20193;-43
2023/06/27 02:15:21;;;;;;;5.93;2.17;;;24.10;53.90;;;;;;4011010;29;20060;-42
2023/06/27 02:18:04;;;;;;;3.60;2.17;;;24.10;53.20;;;;;;4008734;29;20112;-45
2023/06/27 02:20:45;;;;;;;4.60;2.17;;;24.10;53.90;;;;;;4016675;29;20052;-42
2023/06/27 02:23:26;;;;;;;3.42;2.03;;;24.10;53.20;;;;;;4015922;29;20069;-50
2023/06/27 02:26:08;;;;;;;6.32;2.58;;;24.10;53.20;;;;;;4008364;29;20409;-46
2023/06/27 02:28:48;;;;;;;5.22;1.90;;;24.00;53.20;;;;;;4016654;29;20057;-52
2023/06/27 02:31:31;;;;;;;2.67;2.13;;;24.00;53.30;;;;;;4016402;29;20516;-50
2023/06/27 02:34:15;;;;;;;5.22;2.15;;;24.00;53.30;;;;;;4016319;29;20238;-50
2023/06/27 02:36:56;;;;;;;4.03;1.80;;;24.00;53.40;;;;;;4016613;29;20064;-52
2023/06/27 02:39:38;;;;;;;3.47;1.90;;;24.00;53.30;;;;;;4013206;29;20112;-53
2023/06/27 02:42:19;;;;;;;2.78;1.90;;;24.00;53.40;;;;;;4015633;29;20525;-51
2023/06/27 02:45:01;;;;;;;4.28;2.20;;;24.00;53.40;;;;;;4003896;29;20060;-53
2023/06/27 02:47:44;;;;;;;4.18;2.28;;;24.00;53.40;;;;;;4000348;29;20065;-51
2023/06/27 02:50:25;;;;;;;2.58;1.67;;;24.00;53.40;;;;;;3996152;29;20061;-51
2023/06/27 02:53:06;;;;;;;4.60;1.60;;;23.90;53.40;;;;;;4009219;29;20056;-49
2023/06/27 02:55:48;;;;;;;4.93;1.88;;;23.90;53.40;;;;;;4013661;29;20061;-54
2023/06/27 02:58:29;;;;;;;3.65;1.85;;;23.90;53.50;;;;;;4016478;29;20500;-50
2023/06/27 03:01:10;;;;;;;;;;;23.90;53.40;;;;;;4009259;29;20474;-51
2023/06/27 03:03:56;;;;;;;2.38;2.13;;;23.90;53.50;;;;;;4014865;29;19935;-49
2023/06/27 03:06:53;;;;;;;2.85;1.90;;;23.90;54.50;;;;;;4004493;29;20503;-50
2023/06/27 03:09:35;;;;;;;;;;;23.90;53.80;;;;;;4016725;29;20515;-48
2023/06/27 03:12:16;;;;;;;6.85;2.20;;;23.90;54.20;;;;;;4015980;29;19931;-49
2023/06/27 03:14:58;;;;;;;4.05;1.92;;;23.80;54.00;;;;;;4000150;29;20068;-51
2023/06/27 03:17:41;;;;;;;2.65;1.88;;;23.80;53.80;;;;;;4000215;29;20592;-53
2023/06/27 03:20:25;;;;;;;2.05;1.70;;;23.80;53.70;;;;;;4010747;29;20057;-52
2023/06/27 03:23:06;;;;;;;3.42;1.92;;;23.80;53.70;;;;;;4008601;29;20473;-53
2023/06/27 03:25:46;;;;;;;4.85;2.00;;;23.80;53.90;;;;;;4015289;29;20074;-51
2023/06/27 03:28:27;;;;;;;2.83;1.77;;;23.80;53.80;;;;;;4015718;29;20056;-49
2023/06/27 03:31:09;;;;;;;2.28;2.00;;;23.80;53.80;;;;;;4003836;29;20497;-51
2023/06/27 03:33:52;;;;;;;3.75;2.20;;;23.80;53.80;;;;;;3999762;29;20412;-49
2023/06/27 03:36:34;;;;;;;3.10;2.05;;;23.80;53.90;;;;;;4018310;29;20194;-50
2023/06/27 03:39:16;;;;;;;5.15;1.92;;;23.80;54.00;;;;;;4012783;29;20061;-55
2023/06/27 03:41:57;;;;;;;;;;;23.80;54.10;;;;;;4018448;29;20068;-51
2023/06/27 03:44:38;;;;;;;3.97;2.42;;;23.80;54.10;;;;;;4013145;29;20384;-50
2023/06/27 03:47:19;;;;;;;2.75;1.92;;;23.80;54.40;;;;;;4004268;29;20862;-51
2023/06/27 03:50:01;;;;;;;4.30;2.10;;;23.70;54.20;;;;;;3995037;29;20068;-53
2023/06/27 03:52:44;;;;;;;3.38;1.90;;;23.70;54.20;;;;;;4024644;29;20053;-52
2023/06/27 03:55:25;;;;;;;3.53;1.77;;;23.70;54.10;;;;;;4028006;29;20064;-54
2023/06/27 03:58:06;;;;;;;2.20;2.00;;;23.70;54.20;;;;;;4018219;29;20065;-52
2023/06/27 04:00:48;;;;;;;2.38;1.90;;;23.70;54.30;;;;;;4018564;29;20129;-54
2023/06/27 04:03:29;;;;;;;5.88;2.30;;;23.70;54.30;;;;;;4013603;29;20128;-53
2023/06/27 04:06:10;;;;;;;5.40;1.95;;;23.70;54.30;;;;;;4018174;29;20158;-51
2023/06/27 04:08:52;;;;;;;;;;;23.70;54.30;;;;;;4017152;29;20521;-52
2023/06/27 04:11:34;;;;;;;3.97;1.92;;;23.70;54.40;;;;;;4017620;29;19960;-50
2023/06/27 04:14:17;;;;;;;;;;;23.70;54.60;;;;;;4017961;29;20056;-54
2023/06/27 04:16:58;;;;;;;5.30;2.42;;;23.70;54.60;;;;;;3999489;29;19998;-53
2023/06/27 04:19:40;;;;;;;5.88;1.88;;;23.70;54.80;;;;;;4017620;29;20421;-51
2023/06/27 04:22:21;;;;;;;;;;;23.60;54.60;;;;;;4014818;29;20068;-54
2023/06/27 04:25:03;;;;;;;4.53;2.08;;;23.60;54.60;;;;;;4018330;29;19931;-53
2023/06/27 04:27:44;;;;;;;2.38;1.73;;;23.60;54.80;;;;;;4018164;29;20516;-54
2023/06/27 04:30:25;;;;;;;3.88;2.03;;;23.60;54.70;;;;;;4016360;29;20133;-55
2023/06/27 04:33:06;;;;;;;3.08;1.58;;;23.60;54.70;;;;;;4014821;29;20060;-53
2023/06/27 04:35:47;;;;;;;3.25;1.88;;;23.60;54.70;;;;;;4018186;29;20513;-56
2023/06/27 04:38:28;;;;;;;2.92;1.95;;;23.60;54.60;;;;;;4017831;29;20480;-55
2023/06/27 04:41:11;;;;;;;5.13;2.00;;;23.60;54.70;;;;;;4017891;29;20469;-54
2023/06/27 04:43:52;;;;;;;5.72;2.20;;;23.60;54.70;;;;;;4014076;29;20634;-52
2023/06/27 04:46:34;;;;;;;5.38;2.30;;;23.60;54.80;;;;;;4001830;29;20052;-55
2023/06/27 04:49:15;;;;;;;3.25;2.03;;;23.60;54.90;;;;;;3997282;29;20141;-54
2023/06/27 04:51:56;;;;;;;5.22;1.98;;;23.70;55.10;;;;;;4014129;29;20060;-55
2023/06/27 04:54:37;;;;;;;5.57;2.00;;;23.70;55.20;;;;;;4017031;29;20110;-56
2023/06/27 04:57:19;;;;;;;4.10;2.20;;;23.70;55.20;;;;;;4016187;29;20060;-55
2023/06/27 05:00:00;;;;;;;2.90;1.83;;;23.80;55.20;;;;;;4017338;29;20068;-54
2023/06/27 05:02:41;;;;;;;2.55;1.60;;;23.80;55.20;;;;;;4014627;29;20197;-56
2023/06/27 05:05:32;;;;;;;1.70;1.55;;;23.80;55.10;;;;;;4017170;29;20110;-56
2023/06/27 05:08:13;;;;;;;3.97;1.80;;;23.80;55.10;;;;;;4017656;29;20428;-56
2023/06/27 05:10:54;;;;;;;;;;;23.80;55.10;;;;;;4017946;29;20059;-56
2023/06/27 05:13:36;;;;;;;3.47;1.90;;;23.80;55.10;;;;;;4015915;29;19935;-56
2023/06/27 05:16:17;;;;;;;4.95;2.08;;;23.80;55.10;;;;;;4002103;29;20106;-55
2023/06/27 05:18:58;;;;;;;7.25;2.25;;;23.80;55.10;;;;;;4001804;29;20061;-55
2023/06/27 05:21:38;;;;;;;2.40;1.70;;;23.90;55.10;;;;;;4001990;29;20056;-56
2023/06/27 05:24:20;;;;;;;4.53;1.67;;;23.90;55.10;;;;;;4002993;29;20064;-55
2023/06/27 05:27:01;;;;;;;4.18;2.00;;;24.00;55.00;;;;;;3994737;29;20056;-56
2023/06/27 05:29:43;;;;;;;2.75;1.75;;;24.10;54.90;;;;;;4001628;29;20406;-56
2023/06/27 05:32:23;;;;;;;4.15;1.60;;;24.20;54.80;;;;;;4001883;29;20235;-55
2023/06/27 05:35:05;;;;;;;3.05;1.60;;;24.40;54.60;;;;;;4002101;29;20064;-55
2023/06/27 05:37:46;;;;;;;2.58;1.63;;;24.50;54.40;;;;;;4002090;29;20516;-56
2023/06/27 05:40:28;;;;;;;2.78;1.48;;;24.60;54.20;;;;;;4002074;29;20069;-56
2023/06/27 05:43:09;;;;;;;3.05;1.58;;;24.60;54.00;;;;;;4001852;29;20122;-56
2023/06/27 05:45:51;;;;;;;6.15;2.00;;;24.70;53.90;;;;;;4001627;29;20607;-56
2023/06/27 05:48:32;;;;;;;3.15;1.45;;;24.80;54.60;;;;;;4001888;29;20386;-55
2023/06/27 05:51:13;;;;;;;4.30;1.95;;;24.90;53.70;;;;;;4003240;29;20060;-57
2023/06/27 05:53:54;;;;;;;4.95;1.90;;;24.90;53.70;;;;;;4012139;29;20056;-56
2023/06/27 05:56:35;;;;;;;4.72;1.38;;;24.90;53.70;;;;;;4014159;29;20056;-56
2023/06/27 05:59:15;;;;;;;2.70;1.63;;;24.90;53.80;;;;;;4016883;29;20194;-56
2023/06/27 06:01:58;;;;;;;4.30;1.98;;;24.90;54.00;;;;;;4016952;29;20553;-56
2023/06/27 06:04:38;;;;;;;4.45;1.77;;;24.90;54.20;;;;;;4016924;29;20073;-56
2023/06/27 06:07:19;;;;;;;3.80;1.90;;;24.80;54.40;;;;;;4016928;29;20509;-56
2023/06/27 06:10:00;;;;;;;4.85;1.60;;;24.80;54.50;;;;;;4009253;29;20061;-55
2023/06/27 06:12:43;;;;;;;10.32;2.10;;;24.80;55.20;;;;;;4016657;29;20057;-56
2023/06/27 06:15:24;;;;;;;2.78;1.50;;;24.80;54.60;;;;;;4011116;29;20595;-55
2023/06/27 06:18:06;;;;;;;4.22;1.25;;;24.90;54.60;;;;;;4008612;29;20080;-56
2023/06/27 06:20:47;;;;;;;3.20;1.55;;;24.90;54.60;;;;;;4016836;29;20115;-55
2023/06/27 06:23:28;;;;;;;2.80;1.20;;;24.90;54.50;;;;;;4016790;29;20133;-53
2023/06/27 06:26:09;;;;;;;2.97;1.42;;;25.00;54.10;;;;;;4016516;29;20189;-55
2023/06/27 06:28:50;;;;;;;5.22;1.55;;;25.00;53.70;;;;;;4016414;29;20679;-56
2023/06/27 06:31:31;;;;;;;4.45;1.30;;;25.10;53.40;;;;;;4016209;29;20413;-56
2023/06/27 06:34:14;;;;;;;3.67;1.00;;;25.10;53.20;;;;;;4016572;29;20116;-56
2023/06/27 06:36:55;;;;;;;4.55;1.30;;;25.20;53.10;;;;;;4001450;29;20065;-56
2023/06/27 06:39:36;;;;;;;;;;;25.20;52.80;;;;;;4001702;29;20120;-54
2023/06/27 06:42:17;;;;;;;2.92;1.00;;;25.30;52.70;;;;;;4001141;29;20019;-54
2023/06/27 06:44:58;;;;;;;4.55;1.55;;;25.30;52.50;;;;;;4006382;29;20092;-56
2023/06/27 06:47:39;;;;;;;4.00;1.27;;;25.30;52.10;;;;;;4016027;29;20137;-57
2023/06/27 06:50:22;;;;;;;;;;;25.40;52.00;;;;;;4014902;29;20083;-56
2023/06/27 06:53:03;;;;;;;2.42;0.95;;;25.40;51.80;;;;;;4016095;29;19993;-56
2023/06/27 06:55:44;;;;;;;4.53;1.30;;;25.40;51.60;;;;;;4015672;29;20080;-56
2023/06/27 06:58:25;;;;;;;6.53;1.13;;;25.50;51.40;;;;;;4012060;29;20193;-54
2023/06/27 07:01:06;;;;;;;8.90;1.63;;;25.60;51.50;;;;;;3997758;29;20716;-55
2023/06/27 07:03:47;;;;;;;5.07;1.38;;;25.60;51.20;;;;;;4016419;29;20413;-54
2023/06/27 07:06:30;;;;;;;5.68;1.38;;;25.60;51.80;;;;;;4015936;29;20515;-54
2023/06/27 07:09:11;;;;;;;3.85;0.85;;;25.70;50.80;;;;;;4011598;29;20068;-54
2023/06/27 07:11:54;;;;;;;3.15;1.02;;;25.70;50.50;;;;;;4019303;29;20193;-55
2023/06/27 07:14:35;;;;;;;3.85;0.85;;;25.70;50.20;;;;;;4019299;29;20060;-55
2023/06/27 07:17:16;;;;;;;4.53;1.20;;;25.70;50.20;;;;;;4019100;29;20061;-55
2023/06/27 07:19:57;;;;;;;2.17;1.00;;;25.70;50.20;;;;;;4019032;29;20415;-54
2023/06/27 07:22:39;;;;;;;3.72;0.95;;;25.80;50.30;;;;;;4019376;29;20068;-55
2023/06/27 07:25:20;;;;;;;2.38;0.90;;;25.80;50.20;;;;;;4019559;29;20437;-55
2023/06/27 07:28:01;;;;;;;;;;;25.80;50.10;;;;;;4019628;29;20113;-52
2023/06/27 07:30:45;;;;;;;3.10;1.20;;;25.70;50.20;;;;;;4018458;29;19935;-54
2023/06/27 07:33:26;;;;;;;1.17;1.05;;;25.80;49.90;;;;;;4018995;29;20109;-54
2023/06/27 07:36:07;;;;;;;;;;;25.70;49.60;;;;;;4012307;29;20061;-55
2023/06/27 07:38:49;;;;;;;1.42;0.65;;;25.70;49.60;;;;;;4017166;29;19931;-54
2023/06/27 07:41:30;;;;;;;5.07;0.98;;;25.70;49.40;;;;;;4003495;29;20092;-54
2023/06/27 07:44:11;;;;;;;;;;;25.70;49.40;;;;;;4004361;29;20053;-53
2023/06/27 07:46:53;;;;;;;3.30;1.02;;;25.60;49.70;;;;;;4002145;29;20457;-54
2023/06/27 07:49:34;;;;;;;4.72;1.10;;;25.60;49.70;;;;;;4008169;29;20060;-53
2023/06/27 07:52:15;;;;;;;;;;;25.50;49.70;;;;;;4018345;29;20059;-55
2023/06/27 07:54:57;;;;;;;3.95;1.05;;;25.40;49.90;;;;;;4018005;29;20079;-54
2023/06/27 07:57:38;;;;;;;5.80;1.75;;;25.30;50.00;;;;;;4025982;29;20064;-54
2023/06/27 08:00:20;;;;;;;3.28;1.10;;;25.30;50.20;;;;;;4018567;29;20068;-50
2023/06/27 08:03:02;;;;;;;2.47;1.17;;;25.20;50.40;;;;;;4018477;29;20056;-53
2023/06/27 08:05:43;;;;;;;2.67;1.13;;;25.20;50.50;;;;;;4018478;29;20060;-55
2023/06/27 08:08:24;;;;;;;2.50;1.20;;;25.10;50.60;;;;;;4018601;29;20145;-54
2023/06/27 08:11:07;;;;;;;2.30;1.13;;;25.10;50.80;;;;;;4006237;29;20092;-53
2023/06/27 08:13:48;;;;;;;5.03;1.10;;;25.10;50.90;;;;;;4018660;29;20068;-54
2023/06/27 08:16:29;;;;;;;4.53;1.13;;;25.00;50.90;;;;;;4007084;29;20065;-50
2023/06/27 08:19:09;;;;;;;1.60;0.90;;;25.00;50.80;;;;;;4018095;29;20232;-51
2023/06/27 08:21:50;;;;;;;4.70;1.15;;;25.00;50.70;;;;;;4017979;29;20056;-55
2023/06/27 08:24:31;;;;;;;2.50;0.88;;;25.00;50.70;;;;;;4018461;29;20103;-53
2023/06/27 08:27:14;;;;;;;2.75;1.10;;;25.00;50.60;;;;;;4017878;29;20520;-54
2023/06/27 08:29:56;;;;;;;2.55;1.15;;;25.10;50.30;;;;;;4017553;29;20113;-52
2023/06/27 08:32:37;;;;;;;2.00;0.95;;;25.10;50.30;;;;;;4018078;29;20209;-54
2023/06/27 08:35:18;;;;;;;5.82;1.27;;;25.10;50.20;;;;;;4012260;29;20133;-54
2023/06/27 08:37:59;;;;;;;;;;;25.10;50.60;;;;;;4018874;29;20924;-55
2023/06/27 08:40:43;;;;;;;4.18;1.10;;;25.10;50.70;;;;;;4014750;29;20280;-56
2023/06/27 08:43:25;;;;;;;4.40;1.00;;;25.10;50.70;;;;;;4010710;29;20064;-53
2023/06/27 08:46:09;;;;;;;4.65;1.35;;;25.10;50.60;;;;;;4010665;29;20072;-54
2023/06/27 08:48:55;;;;;;;1.48;0.63;;;25.00;50.50;;;;;;4016903;29;20060;-53
2023/06/27 08:51:38;;;;;;;3.83;1.40;;;25.00;50.60;;;;;;4016932;29;20053;-53
2023/06/27 08:54:26;;;;;;;3.67;1.25;;;25.10;50.60;;;;;;4017847;29;20072;-51
2023/06/27 08:57:07;;;;;;;1.42;0.95;;;25.00;50.50;;;;;;4006033;29;20053;-47
2023/06/27 08:59:50;;;;;;;2.80;1.30;;;25.00;50.90;;;;;;4014203;29;20065;-47
2023/06/27 09:02:32;;;;;;;1.58;0.90;;;25.10;50.90;;;;;;4017740;29;20060;-48
2023/06/27 09:05:13;;;;;;;2.38;1.33;;;25.00;51.50;;;;;;4017583;29;20064;-49
2023/06/27 09:07:54;;;;;;;;;;;25.00;51.40;;;;;;4016462;29;20132;-48
2023/06/27 09:10:35;;;;;;;3.55;1.58;;;25.10;51.40;;;;;;4017481;29;20406;-51
2023/06/27 09:13:18;;;;;;;6.63;1.23;;;25.10;51.30;;;;;;4017815;29;20785;-48
2023/06/27 09:16:00;;;;;;;4.50;0.98;;;25.00;50.40;;;;;;4009354;29;20057;-48
2023/06/27 09:18:43;;;;;;;3.97;0.90;;;25.00;50.60;;;;;;4002217;29;20187;-48
2023/06/27 09:21:24;;;;;;;4.55;1.23;;;25.00;50.80;;;;;;3997148;29;20065;-48
2023/06/27 09:24:05;;;;;;;;;;;25.00;50.70;;;;;;3996195;29;20065;-47
2023/06/27 09:26:46;;;;;;;4.93;1.35;;;25.00;50.90;;;;;;4005319;29;20036;-48
2023/06/27 09:29:33;;;;;;;2.38;1.15;;;25.00;50.80;;;;;;4004091;29;20130;-47
2023/06/27 09:32:15;;;;;;;4.40;1.13;;;25.00;50.60;;;;;;4001305;29;20069;-47
2023/06/27 09:34:56;;;;;;;3.15;0.93;;;25.00;50.60;;;;;;4002310;29;20076;-51
2023/06/27 09:37:38;;;;;;;2.92;1.00;;;25.00;50.50;;;;;;4011768;29;20145;-51
2023/06/27 09:40:24;;;;;;;3.55;1.25;;;25.00;50.40;;;;;;4017287;29;20508;-49
2023/06/27 09:43:09;;;;;;;2.17;1.00;;;25.00;50.40;;;;;;4016943;29;20064;-53
2023/06/27 09:45:58;;;;;;;4.38;1.58;;;25.00;50.20;;;;;;4017154;29;20545;-50
2023/06/27 09:48:44;;;;;;;4.38;1.25;;;25.00;49.90;;;;;;3999148;29;20053;-48
2023/06/27 09:51:25;;;;;;;4.72;1.73;;;25.00;50.00;;;;;;4001506;29;20162;-49
2023/06/27 09:54:06;;;;;;;1.83;1.00;;;25.00;49.80;;;;;;4001575;29;20061;-49
2023/06/27 09:56:50;;;;;;;8.20;4.63;;;25.10;49.60;;;;;;4003667;29;20513;-49
2023/06/27 09:59:31;;;;;;;4.32;1.20;;;25.10;49.60;;;;;;4016811;29;20055;-49
2023/06/27 10:02:14;;;;;;;4.80;1.55;;;25.10;49.40;;;;;;4016665;29;20048;-53
2023/06/27 10:04:57;;;;;;;2.40;1.27;;;25.10;50.20;;;;;;4015603;29;20412;-48
2023/06/27 10:07:39;;;;;;;4.38;1.38;;;25.10;49.40;;;;;;4000612;29;20056;-49
2023/06/27 10:10:25;;;;;;;4.68;2.05;;;25.10;49.40;;;;;;4015695;29;20060;-54
2023/06/27 10:13:06;;;;;;;3.72;1.88;;;25.10;49.60;;;;;;4016854;29;20419;-52
2023/06/27 10:15:48;;;;;;;4.82;1.25;;;25.00;49.60;;;;;;4016654;29;20052;-53
2023/06/27 10:18:30;;;;;;;6.18;1.20;;;25.10;49.30;;;;;;4007432;29;20134;-49
2023/06/27 10:21:12;;;;;;;2.35;1.23;;;25.10;49.30;;;;;;4031976;29;20189;-53
2023/06/27 10:23:57;;;;;;;2.83;1.23;;;25.10;49.20;;;;;;4030345;29;20069;-51
2023/06/27 10:26:38;;;;;;;2.20;1.10;;;25.10;49.20;;;;;;4017297;29;20058;-51
2023/06/27 10:29:18;;;;;;;5.60;1.50;;;25.20;49.30;;;;;;4016350;29;20149;-53
2023/06/27 10:32:00;;;;;;;2.42;0.98;;;25.20;49.50;;;;;;4016303;29;20068;-53
2023/06/27 10:34:43;;;;;;;4.43;1.33;;;25.20;49.30;;;;;;4015361;29;20093;-51
2023/06/27 10:37:26;;;;;;;2.55;1.33;;;25.20;49.40;;;;;;4001214;29;20065;-53
2023/06/27 10:40:09;;;;;;;2.13;1.02;;;25.20;49.60;;;;;;4001413;29;20060;-53
2023/06/27 10:42:54;;;;;;;2.35;1.00;;;25.20;49.60;;;;;;4002770;29;20061;-53
2023/06/27 10:45:35;;;;;;;3.70;1.20;;;25.20;49.40;;;;;;4009163;29;20064;-49
2023/06/27 10:48:27;;;;;;;4.18;1.23;;;25.30;49.10;;;;;;4025839;29;20063;-52
2023/06/27 10:51:08;;;;;;;3.40;1.17;;;25.30;49.00;;;;;;4029833;29;20581;-50
2023/06/27 10:54:17;;;;;;;2.55;1.33;;;25.30;49.10;;;;;;4016465;29;20053;-51
2023/06/27 10:57:00;;;;;;;3.38;0.93;;;25.30;49.10;;;;;;4001050;29;20505;-50
2023/06/27 10:59:45;;;;;;;4.15;1.33;;;25.30;49.20;;;;;;3997850;29;20061;-49
2023/06/27 11:02:33;;;;;;;3.63;1.27;;;25.30;49.20;;;;;;4016293;29;20064;-49
2023/06/27 11:05:17;;;;;;;4.70;0.80;;;25.30;48.90;;;;;;4010442;29;20056;-48
2023/06/27 11:08:00;;;;;;;1.92;0.90;;;25.30;49.10;;;;;;4016196;29;20056;-53
2023/06/27 11:11:03;;;;;;;4.68;1.10;;;25.30;49.20;;;;;;4009101;29;20053;-51
2023/06/27 11:13:46;;;;;;;1.45;1.13;;;25.30;49.20;;;;;;4000821;29;20094;-48
2023/06/27 11:16:28;;;;;;;2.53;1.20;;;25.40;49.40;;;;;;4000872;29;20056;-50
2023/06/27 11:19:09;;;;;;;6.07;1.23;;;25.30;49.30;;;;;;4015946;29;20064;-48
2023/06/27 11:21:54;;;;;;;3.80;1.23;;;25.40;49.50;;;;;;4016084;29;20132;-48
2023/06/27 11:24:35;;;;;;;3.17;0.57;;;25.40;49.50;;;;;;4016386;29;20064;-48
2023/06/27 11:27:19;;;;;;;3.85;1.25;;;25.40;49.40;;;;;;4010066;29;20074;-48
2023/06/27 11:30:00;;;;;;;4.82;1.20;;;25.30;49.30;;;;;;4014477;29;20420;-48
2023/06/27 11:32:41;;;;;;;3.65;0.98;;;25.40;49.40;;;;;;4015593;29;20056;-48
2023/06/27 11:35:22;;;;;;;;;;;25.40;49.20;;;;;;4016742;29;20518;-49
2023/06/27 11:38:06;;;;;;;2.70;0.85;;;25.40;49.30;;;;;;4015583;29;19940;-50
2023/06/27 11:40:51;;;;;;;3.10;0.90;;;25.30;49.20;;;;;;4015903;29;20141;-52
2023/06/27 11:43:34;;;;;;;3.60;1.25;;;25.30;49.30;;;;;;4015710;29;20065;-50
2023/06/27 11:46:19;;;;;;;3.40;0.93;;;25.30;50.00;;;;;;4014280;29;20065;-49
2023/06/27 11:49:00;;;;;;;2.22;0.98;;;25.30;49.30;;;;;;4015734;29;20061;-49
2023/06/27 11:51:41;;;;;;;;;;;25.30;49.50;;;;;;4015143;29;20064;-48
2023/06/27 11:54:22;;;;;;;5.47;1.25;;;25.30;49.80;;;;;;4019289;29;19930;-47
2023/06/27 11:57:03;;;;;;;2.25;0.70;;;25.30;49.90;;;;;;4023261;29;20508;-48
2023/06/27 11:59:45;;;;;;;2.47;1.00;;;25.30;49.60;;;;;;4018568;29;20504;-47
2023/06/27 12:02:26;;;;;;;6.43;1.00;;;25.30;49.00;;;;;;4003268;29;20110;-50
2023/06/27 12:05:13;;;;;;;3.75;0.90;;;25.30;49.00;;;;;;4004501;29;20069;-47
2023/06/27 12:08:01;;;;;;;6.50;1.17;;;25.30;48.90;;;;;;4011035;29;20064;-47
2023/06/27 12:10:53;;;;;;;5.30;1.20;;;25.30;48.80;;;;;;4015590;29;20064;-49
2023/06/27 12:13:37;;;;;;;3.17;1.10;;;25.30;48.00;;;;;;4014841;29;20508;-47
2023/06/27 12:16:27;;;;;;;3.65;1.20;;;25.30;48.30;;;;;;4023776;29;20389;-48
2023/06/27 12:19:10;;;;;;;5.43;1.25;;;25.30;48.30;;;;;;4003458;29;20056;-48
2023/06/27 12:21:52;;;;;;;2.60;0.90;;;25.30;48.90;;;;;;4003301;29;20501;-46
2023/06/27 12:24:33;;;;;;;5.38;0.98;;;25.30;49.60;;;;;;4003173;29;20489;-49
2023/06/27 12:27:14;;;;;;;2.38;1.13;;;25.30;48.90;;;;;;4016285;29;20057;-50
2023/06/27 12:29:55;;;;;;;1.73;0.90;;;25.30;49.00;;;;;;4018026;29;20064;-47
2023/06/27 12:32:37;;;;;;;3.63;1.20;;;25.30;48.90;;;;;;4018071;29;20064;-48
2023/06/27 12:35:18;;;;;;;2.13;1.20;;;25.30;48.90;;;;;;4025273;29;20409;-53
2023/06/27 12:38:00;;;;;;;1.98;1.05;;;25.20;49.00;;;;;;4017916;29;20565;-50
2023/06/27 12:40:41;;;;;;;1.80;0.77;;;25.20;48.90;;;;;;4018170;29;20060;-50
2023/06/27 12:43:22;;;;;;;1.88;1.02;;;25.20;48.70;;;;;;4018354;29;20064;-50
2023/06/27 12:46:04;;;;;;;3.80;1.10;;;25.20;48.50;;;;;;4017681;29;20056;-47
2023/06/27 12:48:47;;;;;;;5.18;1.10;;;25.20;48.50;;;;;;4018006;29;20497;-52
2023/06/27 12:51:29;;;;;;;2.72;1.20;;;25.20;48.70;;;;;;4017838;29;20065;-48
2023/06/27 12:54:10;;;;;;;3.05;1.00;;;25.20;48.80;;;;;;4017538;29;20097;-49
2023/06/27 12:56:51;;;;;;;4.03;0.90;;;25.20;48.90;;;;;;4017699;29;20056;-47
2023/06/27 12:59:31;;;;;;;;;;;25.20;49.00;;;;;;4017802;29;20060;-48
2023/06/27 13:02:15;;;;;;;2.80;0.95;;;25.20;49.20;;;;;;4016989;29;19935;-51
2023/06/27 13:04:57;;;;;;;3.35;1.00;;;25.20;49.30;;;;;;4017269;29;20053;-50
2023/06/27 13:07:38;;;;;;;1.92;0.90;;;25.20;49.30;;;;;;4001832;29;20061;-47
2023/06/27 13:10:19;;;;;;;2.60;1.08;;;25.20;49.50;;;;;;3993410;29;20074;-46
2023/06/27 13:13:01;;;;;;;2.83;0.98;;;25.20;49.30;;;;;;4002085;29;20057;-47
2023/06/27 13:15:42;;;;;;;2.22;0.80;;;25.20;49.20;;;;;;4002127;29;20735;-50
2023/06/27 13:18:24;;;;;;;5.20;1.23;;;25.20;49.40;;;;;;4002141;29;20080;-47
2023/06/27 13:21:07;;;;;;;2.92;1.20;;;25.20;49.30;;;;;;4002320;29;20517;-47
2023/06/27 13:23:48;;;;;;;2.35;0.75;;;25.20;48.90;;;;;;4001707;29;20061;-48
2023/06/27 13:26:30;;;;;;;5.90;1.05;;;25.20;49.20;;;;;;4001453;29;20056;-47
2023/06/27 13:29:11;;;;;;;4.20;0.82;;;25.20;48.80;;;;;;4001328;29;20505;-47
2023/06/27 13:31:51;;;;;;;3.30;0.93;;;25.20;49.10;;;;;;4001267;29;20141;-48
2023/06/27 13:34:32;;;;;;;5.75;1.35;;;25.20;48.90;;;;;;3997161;29;20069;-49
2023/06/27 13:37:15;;;;;;;4.03;0.93;;;25.20;48.00;;;;;;4001078;29;20049;-49
2023/06/27 13:39:55;;;;;;;1.05;0.88;;;25.20;47.60;;;;;;4000981;29;20061;-49
2023/06/27 13:42:37;;;;;;;1.42;0.80;;;25.20;47.50;;;;;;4002578;29;20055;-50
2023/06/27 13:45:18;;;;;;;2.05;0.80;;;25.20;48.10;;;;;;4017015;29;20056;-49
2023/06/27 13:47:59;;;;;;;2.30;1.00;;;25.20;48.80;;;;;;4009314;29;20064;-47
2023/06/27 13:50:40;;;;;;;3.63;1.05;;;25.20;48.80;;;;;;4016772;29;20053;-47
2023/06/27 13:53:23;;;;;;;4.22;1.00;;;25.20;48.80;;;;;;4003714;29;20136;-46
2023/06/27 13:56:05;;;;;;;6.45;1.60;;;25.20;48.60;;;;;;4020019;29;20056;-47
2023/06/27 13:58:46;;;;;;;1.58;0.88;;;25.20;48.60;;;;;;4001555;29;20056;-47
2023/06/27 14:01:27;;;;;;;5.25;1.08;;;25.20;48.80;;;;;;4001367;29;20155;-46
2023/06/27 14:04:10;;;;;;;3.88;1.38;;;25.20;48.80;;;;;;4001370;29;20409;-46
2023/06/27 14:06:52;;;;;;;1.85;0.90;;;25.20;49.70;;;;;;4001445;29;20149;-47
2023/06/27 14:09:35;;;;;;;4.13;1.15;;;25.10;49.10;;;;;;4000608;29;20056;-47
2023/06/27 14:12:18;;;;;;;2.80;1.10;;;25.10;49.00;;;;;;4001376;29;20504;-46